メインページ
METAR-TAF:

METAR-TAF

空港 :

マジャンタ空港

ヌメア, ニューカレドニア

緯度: 22-15-30S, 経度: 166-28-22E, 海抜: 3m

METAR: 見つかりません

時間: 17:03 (06:03 UTC)

予報

当レポートは13時間3分前の17:00(UTC)に作成
予報は20日の 18時(UTC)から 21日の 18時(UTC)まで有効
変向風 2kt
視程10km以上
高度4000ftの雲は散在している
高度4800ftの千切れ雲あり
20日の 23時(UTC)から 21日の 01時(UTC)まで徐々に
南西の風 10kt

TAF: NWWM 201700Z 2018/2118 VRB02KT 9999 SCT040 BKN048 BECMG 2023/2101 23010KT

4,000以上の空港の気象観測と天気予報(METAR報とTAF報)

利用可能な観測所は地図上に黄色い丸と赤い丸で示す。

丸の上にカーソルを重ねると観測所名を参照できる。

次にクリックすると気象観測と天気予報を参照できる。

マップの切り替え:黒色「×」印の緑ボタンをクリックして拡大、「-」印の緑ボタンをクリックして縮小、緑色の三角印をクリックして隣りの地図に切り替え


METAR-TAF: